Altinho, Brazil
Current Conditions -  °F | °C
As of 5:00 AM on Monday 20 Oct 2014 (Local Time) from SBMO Reporting Station
Scattered Clouds Scattered Clouds  
Wind Chill: 66°   Ceiling: Unl
Heat Index: 66°   Visibility: 6mi
Dew Point: 66°   Wind: 3mph
Humidity: 100%   Direction: 20°NNE
Pressure: 29.94"   Gusts: NA
Location:  8.49°S, 36.06°W
Report Text: SBMO 200800Z 02003KT 9999 SCT018 19/19 Q1014
Loading
Personal Weather Stations






























Interactive Weather Map
Tropical Storm Tracking
New forecast layout! Learn more

10-Day Weather Forecast

Advertisements
Track Severe Weather on mobile